createdAt,value
2023-03-28T00:01:03.204Z,98008.38
2023-03-28T00:03:35.715Z,98009.28
2023-03-28T00:06:05.921Z,98009.31
2023-03-28T00:08:33.278Z,98020.56
2023-03-28T00:11:06.531Z,98018.00
2023-03-28T00:13:34.200Z,98027.53
2023-03-28T00:16:08.355Z,98032.81
2023-03-28T00:18:39.217Z,98024.25
2023-03-28T00:21:19.736Z,98026.09
2023-03-28T00:23:46.937Z,98034.78
2023-03-28T00:26:13.824Z,98029.69
2023-03-28T00:28:41.054Z,98028.88
2023-03-28T00:31:08.738Z,98039.25
2023-03-28T00:33:35.939Z,98050.53
2023-03-28T00:36:03.192Z,98053.13
2023-03-28T00:38:31.564Z,98061.88
2023-03-28T00:40:58.527Z,98066.22
2023-03-28T00:43:43.661Z,98068.00
2023-03-28T00:46:18.580Z,98062.00
2023-03-28T00:48:52.672Z,98068.13
2023-03-28T00:51:25.080Z,98078.50
2023-03-28T00:53:57.974Z,98078.56
2023-03-28T00:56:27.072Z,98094.09
2023-03-28T00:58:54.341Z,98099.34
2023-03-28T01:01:21.369Z,98101.09
2023-03-28T01:04:02.428Z,98104.59
2023-03-28T01:06:35.036Z,98089.13
2023-03-28T01:09:06.846Z,98099.47
2023-03-28T01:11:37.543Z,98103.81
2023-03-28T01:14:04.865Z,98096.06
2023-03-28T01:16:31.981Z,98096.91
2023-03-28T01:19:03.764Z,98107.28
2023-03-28T01:21:48.962Z,98100.41
2023-03-28T01:24:46.262Z,98095.22
2023-03-28T01:27:54.551Z,98096.13
2023-03-28T01:30:34.222Z,98093.59
2023-03-28T01:33:13.048Z,98092.75
2023-03-28T01:36:33.855Z,98099.69
2023-03-28T01:39:09.448Z,98095.44
2023-03-28T01:41:55.454Z,98100.59
2023-03-28T01:44:28.478Z,98091.97
2023-03-28T01:47:07.964Z,98106.63
2023-03-28T01:49:47.191Z,98102.34
2023-03-28T01:52:20.786Z,98108.41
2023-03-28T01:55:09.451Z,98096.38
2023-03-28T01:57:56.724Z,98103.25
2023-03-28T02:00:38.664Z,98106.75
2023-03-28T02:03:13.246Z,98092.94
2023-03-28T02:05:43.074Z,98091.28
2023-03-28T02:08:12.157Z,98089.59
2023-03-28T02:10:41.974Z,98088.75
2023-03-28T02:13:16.460Z,98105.19
2023-03-28T02:15:46.564Z,98111.22
2023-03-28T02:18:29.731Z,98108.69
2023-03-28T02:21:05.077Z,98110.47
2023-03-28T02:23:39.299Z,98111.34
2023-03-28T02:26:07.113Z,98111.34
2023-03-28T02:28:37.153Z,98119.13
2023-03-28T02:31:05.566Z,98121.75
2023-03-28T02:33:38.122Z,98123.53
2023-03-28T02:36:10.901Z,98125.31
2023-03-28T02:38:48.351Z,98119.31
2023-03-28T02:41:39.367Z,98129.72
2023-03-28T02:44:35.769Z,98130.66
2023-03-28T02:47:25.692Z,98138.47
2023-03-28T02:50:27.902Z,98129.91
2023-03-28T02:53:00.924Z,98129.94
2023-03-28T02:55:41.705Z,98142.03
2023-03-28T02:58:22.953Z,98142.94
2023-03-28T03:00:51.312Z,98151.53
2023-03-28T03:03:18.391Z,98155.88
2023-03-28T03:05:45.607Z,98157.59
2023-03-28T03:08:12.653Z,98161.03
2023-03-28T03:10:39.835Z,98157.59
2023-03-28T03:13:06.817Z,98157.66
2023-03-28T03:15:35.798Z,98152.47
2023-03-28T03:18:04.479Z,98158.50
2023-03-28T03:20:33.779Z,98155.09
2023-03-28T03:23:01.697Z,98164.56
2023-03-28T03:25:31.422Z,98167.19
2023-03-28T03:27:58.454Z,98162.00
2023-03-28T03:30:25.686Z,98162.06
2023-03-28T03:32:52.863Z,98162.09
2023-03-28T03:35:20.462Z,98161.25
2023-03-28T03:37:47.729Z,98163.03
2023-03-28T03:40:14.953Z,98166.50
2023-03-28T03:42:41.797Z,98163.06
2023-03-28T03:45:09.986Z,98164.00
2023-03-28T03:47:36.960Z,98164.03
2023-03-28T03:50:04.591Z,98165.78
2023-03-28T03:52:31.656Z,98168.38
2023-03-28T03:54:58.767Z,98167.56
2023-03-28T03:57:25.742Z,98165.84
2023-03-28T03:59:52.921Z,98160.72
2023-03-28T04:02:20.354Z,98167.66
2023-03-28T04:04:47.869Z,98167.69
2023-03-28T04:07:14.913Z,98166.84
2023-03-28T04:09:42.065Z,98172.88
2023-03-28T04:12:10.565Z,98175.44
2023-03-28T04:14:37.693Z,98177.22
2023-03-28T04:17:05.098Z,98178.94
2023-03-28T04:19:32.397Z,98182.41
2023-03-28T04:21:59.348Z,98179.81
2023-03-28T04:24:26.770Z,98169.53
2023-03-28T04:26:56.494Z,98190.13
2023-03-28T04:29:30.651Z,98185.84
2023-03-28T04:31:58.878Z,98193.56
2023-03-28T04:34:30.308Z,98189.28
2023-03-28T04:37:02.053Z,98196.16
2023-03-28T04:39:30.971Z,98198.72
2023-03-28T04:42:02.068Z,98198.72
2023-03-28T04:44:29.738Z,98196.97
2023-03-28T04:46:58.342Z,98202.09
2023-03-28T04:49:25.859Z,98205.53
2023-03-28T04:51:52.896Z,98211.50
2023-03-28T04:54:20.386Z,98214.03
2023-03-28T04:56:50.381Z,98222.59
2023-03-28T04:59:18.359Z,98213.88
2023-03-28T05:01:49.465Z,98216.28
2023-03-28T05:04:17.888Z,98217.72
2023-03-28T05:06:46.486Z,98225.84
2023-03-28T05:09:14.447Z,98226.94
2023-03-28T05:11:41.758Z,98232.28
2023-03-28T05:14:09.253Z,98228.47
2023-03-28T05:16:36.316Z,98231.75
2023-03-28T05:19:04.041Z,98237.94
2023-03-28T05:21:31.151Z,98237.16
2023-03-28T05:23:58.352Z,98229.34
2023-03-28T05:26:25.794Z,98236.09
2023-03-28T05:28:53.208Z,98230.28
2023-03-28T05:31:20.450Z,98239.84
2023-03-28T05:33:47.746Z,98234.50
2023-03-28T05:36:14.915Z,98240.50
2023-03-28T05:38:42.312Z,98240.97
2023-03-28T05:41:09.210Z,98234.69
2023-03-28T05:43:36.362Z,98241.88
2023-03-28T05:46:03.362Z,98246.66
2023-03-28T05:48:31.763Z,98242.59
2023-03-28T05:50:58.810Z,98244.09
2023-03-28T05:53:26.258Z,98246.59
2023-03-28T05:55:53.082Z,98247.13
2023-03-28T05:58:20.370Z,98240.00
2023-03-28T06:00:47.298Z,98241.16
2023-03-28T06:03:16.778Z,98247.72
2023-03-28T06:05:45.109Z,98246.09
2023-03-28T06:08:12.379Z,98247.91
2023-03-28T06:10:39.267Z,98253.84
2023-03-28T06:13:06.454Z,98252.34
2023-03-28T06:15:33.367Z,98246.06
2023-03-28T06:18:00.960Z,98249.69
2023-03-28T06:20:27.814Z,98243.66
2023-03-28T06:22:55.075Z,98252.50
2023-03-28T06:25:21.971Z,98254.22
2023-03-28T06:27:49.590Z,98247.50
2023-03-28T06:30:16.529Z,98259.94
2023-03-28T06:32:43.875Z,98250.88
2023-03-28T06:35:10.874Z,98259.19
2023-03-28T06:37:38.083Z,98262.59
2023-03-28T06:40:05.582Z,98252.06
2023-03-28T06:42:32.800Z,98258.56
2023-03-28T06:44:59.644Z,98259.13
2023-03-28T06:47:26.984Z,98260.56
2023-03-28T06:49:53.817Z,98269.41
2023-03-28T06:52:23.205Z,98258.06
2023-03-28T06:54:50.152Z,98255.81
2023-03-28T06:57:17.465Z,98253.16
2023-03-28T06:59:44.455Z,98261.03
2023-03-28T07:02:11.901Z,98258.41
2023-03-28T07:04:38.897Z,98257.06
2023-03-28T07:07:07.978Z,98262.75
2023-03-28T07:09:35.782Z,98266.13
2023-03-28T07:12:03.776Z,98264.69
2023-03-28T07:14:30.644Z,98261.16
2023-03-28T07:16:57.939Z,98258.50
2023-03-28T07:19:25.049Z,98262.50
2023-03-28T07:21:53.299Z,98260.59
2023-03-28T07:24:20.501Z,98267.41
2023-03-28T07:26:47.714Z,98268.88
2023-03-28T07:29:14.641Z,98265.66
2023-03-28T07:31:42.199Z,98258.22
2023-03-28T07:34:09.319Z,98266.91
2023-03-28T07:36:38.492Z,98259.59
2023-03-28T07:39:05.854Z,98255.53
2023-03-28T07:41:33.028Z,98264.81
2023-03-28T07:44:00.132Z,98275.16
2023-03-28T07:46:28.034Z,98263.97
2023-03-28T07:48:56.281Z,98274.44
2023-03-28T07:51:23.441Z,98259.72
2023-03-28T07:53:50.352Z,98263.03
2023-03-28T07:56:17.572Z,98258.72
2023-03-28T07:58:44.384Z,98268.09
2023-03-28T08:01:12.935Z,98284.16
2023-03-28T08:03:41.459Z,98285.19
2023-03-28T08:06:24.191Z,98274.03
2023-03-28T08:08:56.094Z,98275.63
2023-03-28T08:11:23.312Z,98276.22
2023-03-28T08:13:50.268Z,98270.06
2023-03-28T08:16:17.477Z,98272.06
2023-03-28T08:18:44.483Z,98269.72
2023-03-28T08:21:11.622Z,98283.34
2023-03-28T08:23:38.535Z,98279.22
2023-03-28T08:26:07.404Z,98287.22
2023-03-28T08:28:35.463Z,98279.16
2023-03-28T08:31:09.351Z,98284.13
2023-03-28T08:33:36.473Z,98288.75
2023-03-28T08:36:03.892Z,98299.09
2023-03-28T08:38:30.863Z,98295.88
2023-03-28T08:41:16.096Z,98300.66
2023-03-28T08:44:01.878Z,98310.69
2023-03-28T08:46:31.045Z,98302.72
2023-03-28T08:49:04.441Z,98308.88
2023-03-28T08:51:37.092Z,98315.44
2023-03-28T08:54:20.628Z,98323.78
2023-03-28T08:56:57.324Z,98323.00
2023-03-28T08:59:53.362Z,98320.22
2023-03-28T09:02:27.036Z,98321.88
2023-03-28T09:05:08.215Z,98317.72
2023-03-28T09:08:09.195Z,98321.03
2023-03-28T09:10:44.079Z,98320.09
2023-03-28T09:13:39.405Z,98316.88
2023-03-28T09:16:09.466Z,98321.16
2023-03-28T09:19:11.001Z,98329.94
2023-03-28T09:22:08.835Z,98328.88
2023-03-28T09:25:01.166Z,98325.16
2023-03-28T09:27:39.938Z,98311.09
2023-03-28T09:30:18.159Z,98326.16
2023-03-28T09:32:45.552Z,98327.09
2023-03-28T09:35:21.678Z,98330.53
2023-03-28T09:38:02.978Z,98328.50
2023-03-28T09:40:33.002Z,98333.16
2023-03-28T09:43:21.047Z,98333.81
2023-03-28T09:46:08.602Z,98345.41
2023-03-28T09:48:37.656Z,98343.63
2023-03-28T09:51:07.231Z,98339.59
2023-03-28T09:53:35.474Z,98336.59
2023-03-28T09:56:08.126Z,98341.22
2023-03-28T09:59:02.507Z,98344.22
2023-03-28T10:01:38.984Z,98341.66
2023-03-28T10:04:28.195Z,98335.94
2023-03-28T10:07:22.389Z,98323.13
2023-03-28T10:09:54.269Z,98333.44
2023-03-28T10:12:39.112Z,98339.69
2023-03-28T10:15:08.944Z,98338.53
2023-03-28T10:17:38.148Z,98331.03
2023-03-28T10:20:15.032Z,98330.44
2023-03-28T10:22:45.845Z,98315.22
2023-03-28T10:25:20.718Z,98326.94
2023-03-28T10:27:51.784Z,98329.56
2023-03-28T10:30:29.615Z,98324.69
2023-03-28T10:33:25.019Z,98331.03
2023-03-28T10:36:02.508Z,98331.78
2023-03-28T10:38:47.764Z,98333.28
2023-03-28T10:41:29.164Z,98334.22
2023-03-28T10:43:57.139Z,98330.88
2023-03-28T10:46:36.338Z,98333.06
2023-03-28T10:49:07.412Z,98328.41
2023-03-28T10:51:38.170Z,98321.22
2023-03-28T10:54:12.921Z,98312.25
2023-03-28T10:56:50.599Z,98327.88
2023-03-28T10:59:41.386Z,98332.72
2023-03-28T11:02:55.976Z,98325.91
2023-03-28T11:06:01.791Z,98321.63
2023-03-28T11:09:07.595Z,98327.41
2023-03-28T11:11:44.263Z,98336.47
2023-03-28T11:14:33.123Z,98334.16
2023-03-28T11:17:22.391Z,98351.06
2023-03-28T11:20:17.849Z,98385.94
2023-03-28T11:22:52.508Z,98391.72
2023-03-28T11:25:57.078Z,98408.00
2023-03-28T11:28:43.133Z,98416.59
2023-03-28T11:31:20.336Z,98419.84
2023-03-28T11:33:53.016Z,98411.28
2023-03-28T11:36:29.579Z,98413.56
2023-03-28T11:39:20.389Z,98398.25
2023-03-28T11:41:50.260Z,98412.84
2023-03-28T11:44:33.158Z,98409.53
2023-03-28T11:47:08.676Z,98408.44
2023-03-28T11:49:47.110Z,98396.50
2023-03-28T11:52:21.179Z,98400.78
2023-03-28T11:54:48.289Z,98397.09
2023-03-28T11:57:44.337Z,98401.50
2023-03-28T12:00:47.385Z,98394.31
2023-03-28T12:03:42.734Z,98387.41
2023-03-28T12:06:20.678Z,98385.06
2023-03-28T12:09:00.354Z,98386.34
2023-03-28T12:11:36.658Z,98385.41
2023-03-28T12:14:35.126Z,98391.69
2023-03-28T12:17:14.009Z,98382.34
2023-03-28T12:19:41.349Z,98389.41
2023-03-28T12:22:27.332Z,98388.44
2023-03-28T12:25:39.451Z,98422.63
2023-03-28T12:28:23.670Z,98455.31
2023-03-28T12:30:59.505Z,98451.88
2023-03-28T12:33:30.549Z,98450.13
2023-03-28T12:36:26.476Z,98450.97
2023-03-28T12:39:22.726Z,98451.28
2023-03-28T12:41:51.925Z,98441.19
2023-03-28T12:44:29.261Z,98449.63
2023-03-28T12:47:09.311Z,98434.34
2023-03-28T12:49:51.506Z,98437.88
2023-03-28T12:52:26.842Z,98435.88
2023-03-28T12:54:57.646Z,98434.56
2023-03-28T12:57:41.100Z,98439.09
2023-03-28T13:00:26.484Z,98444.22
2023-03-28T13:03:05.650Z,98446.19
2023-03-28T13:05:47.387Z,98454.97
2023-03-28T13:08:48.370Z,98439.81
2023-03-28T13:11:30.154Z,98432.00
2023-03-28T13:14:36.451Z,98449.53
2023-03-28T13:17:26.253Z,98453.69
2023-03-28T13:19:55.954Z,98438.03
2023-03-28T13:22:42.557Z,98461.28
2023-03-28T13:25:33.850Z,98464.56
2023-03-28T13:28:24.473Z,98462.66
2023-03-28T13:31:09.577Z,98481.59
2023-03-28T13:33:38.818Z,98478.22
2023-03-28T13:36:06.126Z,98464.97
2023-03-28T13:39:04.183Z,98498.56
2023-03-28T13:41:34.680Z,98541.59
2023-03-28T13:44:10.580Z,98548.78
2023-03-28T13:46:44.544Z,98557.72
2023-03-28T13:49:30.166Z,98563.19
2023-03-28T13:52:20.227Z,98562.75
2023-03-28T13:54:54.211Z,98572.31
2023-03-28T13:57:27.056Z,98572.31
2023-03-28T13:59:58.534Z,98561.94
2023-03-28T14:02:28.859Z,98565.38
2023-03-28T14:05:03.555Z,98576.00
2023-03-28T14:07:31.156Z,98586.31
2023-03-28T14:09:58.415Z,98586.94
2023-03-28T14:12:29.536Z,98577.03
2023-03-28T14:14:59.067Z,98579.94
2023-03-28T14:17:33.812Z,98580.34
2023-03-28T14:20:05.522Z,98579.75
2023-03-28T14:22:45.753Z,98580.03
2023-03-28T14:25:17.551Z,98593.59
2023-03-28T14:27:52.644Z,98592.75
2023-03-28T14:30:31.061Z,98582.03
2023-03-28T14:33:16.376Z,98580.34
2023-03-28T14:35:45.686Z,98588.63
2023-03-28T14:38:14.934Z,98597.44
2023-03-28T14:40:45.746Z,98593.16
2023-03-28T14:43:13.846Z,98594.88
2023-03-28T14:45:44.789Z,98576.72
2023-03-28T14:48:19.355Z,98587.53
2023-03-28T14:50:48.844Z,98588.47
2023-03-28T14:53:28.184Z,98591.22
2023-03-28T14:56:02.258Z,98588.72
2023-03-28T14:58:31.219Z,98588.88
2023-03-28T15:01:01.828Z,98589.03
2023-03-28T15:03:42.082Z,98589.97
2023-03-28T15:06:16.588Z,98595.28
2023-03-28T15:08:45.908Z,98597.88
2023-03-28T15:11:22.415Z,98597.06
2023-03-28T15:14:13.477Z,98595.22
2023-03-28T15:16:44.269Z,98590.75
2023-03-28T15:19:41.138Z,98600.13
2023-03-28T15:22:12.942Z,98593.06
2023-03-28T15:24:41.468Z,98602.44
2023-03-28T15:27:24.020Z,98593.78
2023-03-28T15:29:51.866Z,98604.97
2023-03-28T15:32:20.728Z,98595.63
2023-03-28T15:34:55.553Z,98610.56
2023-03-28T15:37:25.417Z,98608.38
2023-03-28T15:39:53.171Z,98606.66
2023-03-28T15:42:20.885Z,98607.31
2023-03-28T15:44:59.598Z,98620.00
2023-03-28T15:47:33.804Z,98620.50
2023-03-28T15:50:16.585Z,98620.94
2023-03-28T15:52:43.989Z,98606.53
2023-03-28T15:55:21.107Z,98617.50
2023-03-28T15:57:48.469Z,98612.25
2023-03-28T16:00:38.327Z,98628.09
2023-03-28T16:03:20.616Z,98633.44
2023-03-28T16:05:51.684Z,98638.13
2023-03-28T16:08:31.071Z,98646.16
2023-03-28T16:10:58.306Z,98639.59
2023-03-28T16:13:25.766Z,98642.41
2023-03-28T16:15:53.070Z,98651.34
2023-03-28T16:18:21.161Z,98649.88
2023-03-28T16:20:48.135Z,98651.88
2023-03-28T16:23:15.458Z,98657.34
2023-03-28T16:25:43.225Z,98660.25
2023-03-28T16:28:18.411Z,98653.53
2023-03-28T16:30:46.283Z,98657.97
2023-03-28T16:33:13.873Z,98676.38
2023-03-28T16:35:41.213Z,98675.75
2023-03-28T16:38:11.851Z,98677.56
2023-03-28T16:40:39.016Z,98675.06
2023-03-28T16:43:06.795Z,98684.69
2023-03-28T16:45:33.848Z,98688.13
2023-03-28T16:48:01.765Z,98681.25
2023-03-28T16:50:28.695Z,98698.53
2023-03-28T16:52:55.966Z,98692.50
2023-03-28T16:55:23.988Z,98692.50
2023-03-28T16:57:51.326Z,98696.91
2023-03-28T17:00:20.211Z,98693.50
2023-03-28T17:02:48.201Z,98715.19
2023-03-28T17:05:17.006Z,98710.06
2023-03-28T17:07:44.797Z,98708.44
2023-03-28T17:10:12.165Z,98724.94
2023-03-28T17:12:39.466Z,98716.31
2023-03-28T17:15:08.999Z,98718.97
2023-03-28T17:17:36.586Z,98729.41
2023-03-28T17:20:03.798Z,98727.69
2023-03-28T17:22:31.253Z,98726.81
2023-03-28T17:24:59.030Z,98725.13
2023-03-28T17:27:26.606Z,98723.44
2023-03-28T17:29:53.624Z,98731.28
2023-03-28T17:32:22.193Z,98738.25
2023-03-28T17:34:49.694Z,98743.50
2023-03-28T17:37:17.059Z,98744.38
2023-03-28T17:39:43.892Z,98741.84
2023-03-28T17:42:11.113Z,98748.75
2023-03-28T17:44:38.106Z,98754.00
2023-03-28T17:47:05.501Z,98758.31
2023-03-28T17:49:32.452Z,98770.44
2023-03-28T17:52:00.220Z,98772.22
2023-03-28T17:54:27.293Z,98780.00
2023-03-28T17:56:54.563Z,98792.13
2023-03-28T17:59:22.335Z,98790.38
2023-03-28T18:01:49.998Z,98792.13
2023-03-28T18:04:18.056Z,98804.19
2023-03-28T18:06:45.654Z,98803.38
2023-03-28T18:09:12.906Z,98805.13
2023-03-28T18:11:41.503Z,98813.78
2023-03-28T18:14:08.957Z,98816.44
2023-03-28T18:16:36.844Z,98814.72
2023-03-28T18:19:06.878Z,98812.22
2023-03-28T18:21:34.180Z,98821.72
2023-03-28T18:24:01.272Z,98833.00
2023-03-28T18:26:28.947Z,98821.78
2023-03-28T18:28:56.011Z,98837.34
2023-03-28T18:31:28.150Z,98840.81
2023-03-28T18:33:57.343Z,98840.84
2023-03-28T18:36:24.897Z,98852.06
2023-03-28T18:38:53.139Z,98848.66
2023-03-28T18:41:20.587Z,98850.38
2023-03-28T18:43:47.750Z,98856.44
2023-03-28T18:46:16.123Z,98863.34
2023-03-28T18:48:44.845Z,98862.47
2023-03-28T18:51:12.489Z,98855.56
2023-03-28T18:53:39.865Z,98860.78
2023-03-28T18:56:08.513Z,98866.78
2023-03-28T18:58:37.198Z,98864.22
2023-03-28T19:01:06.372Z,98877.16
2023-03-28T19:03:42.996Z,98874.59
2023-03-28T19:06:15.387Z,98878.88
2023-03-28T19:08:43.723Z,98882.34
2023-03-28T19:11:13.897Z,98884.94
2023-03-28T19:13:41.742Z,98890.13
2023-03-28T19:16:12.597Z,98875.47
2023-03-28T19:18:41.258Z,98886.66
2023-03-28T19:21:10.175Z,98882.34
2023-03-28T19:23:37.575Z,98891.00
2023-03-28T19:26:07.267Z,98890.09
2023-03-28T19:28:35.583Z,98894.41
2023-03-28T19:31:05.975Z,98900.47
2023-03-28T19:33:33.339Z,98900.44
2023-03-28T19:36:01.250Z,98899.56
2023-03-28T19:38:30.931Z,98905.63
2023-03-28T19:41:02.708Z,98909.94
2023-03-28T19:43:31.022Z,98907.31
2023-03-28T19:46:06.927Z,98914.25
2023-03-28T19:48:35.118Z,98918.56
2023-03-28T19:51:02.802Z,98920.31
2023-03-28T19:53:29.781Z,98918.56
2023-03-28T19:55:59.827Z,98915.97
2023-03-28T19:58:28.340Z,98921.16
2023-03-28T20:00:57.105Z,98925.47
2023-03-28T20:03:24.467Z,98923.75
2023-03-28T20:05:55.564Z,98914.28
2023-03-28T20:08:24.306Z,98927.22
2023-03-28T20:10:52.762Z,98927.22
2023-03-28T20:13:19.647Z,98928.94
2023-03-28T20:15:47.440Z,98928.97
2023-03-28T20:18:20.083Z,98925.50
2023-03-28T20:20:52.530Z,98940.19
2023-03-28T20:23:22.699Z,98932.44
2023-03-28T20:25:52.324Z,98941.94
2023-03-28T20:28:21.082Z,98941.94
2023-03-28T20:30:48.381Z,98941.94
2023-03-28T20:33:15.792Z,98947.97
2023-03-28T20:35:51.768Z,98954.00
2023-03-28T20:38:19.136Z,98947.94
2023-03-28T20:40:49.416Z,98947.97
2023-03-28T20:43:20.747Z,98952.28
2023-03-28T20:45:54.144Z,98951.41
2023-03-28T20:48:36.441Z,98958.31
2023-03-28T20:51:17.113Z,98966.09
2023-03-28T20:53:47.563Z,98963.50
2023-03-28T20:56:15.888Z,98967.81
2023-03-28T20:58:44.143Z,98971.25
2023-03-28T21:01:13.424Z,98977.31
2023-03-28T21:04:06.759Z,98979.03
2023-03-28T21:06:39.660Z,98985.09
2023-03-28T21:09:12.424Z,98987.69
2023-03-28T21:11:40.317Z,98984.19
2023-03-28T21:14:09.090Z,98985.06
2023-03-28T21:16:37.988Z,98981.63
2023-03-28T21:19:05.153Z,98988.53
2023-03-28T21:21:34.096Z,98991.97
2023-03-28T21:24:02.268Z,98997.16
2023-03-28T21:26:29.799Z,99004.91
2023-03-28T21:28:56.880Z,98997.16
2023-03-28T21:31:26.791Z,99000.63
2023-03-28T21:33:57.216Z,98994.56
2023-03-28T21:36:25.604Z,98998.00
2023-03-28T21:38:52.538Z,98998.03
2023-03-28T21:41:20.024Z,99004.03
2023-03-28T21:43:48.317Z,98993.72
2023-03-28T21:46:18.541Z,98999.75
2023-03-28T21:48:48.060Z,99007.50
2023-03-28T21:51:17.251Z,98996.28
2023-03-28T21:53:44.337Z,99013.53
2023-03-28T21:56:12.847Z,99008.38
2023-03-28T21:58:40.462Z,99008.38
2023-03-28T22:01:08.139Z,99012.69
2023-03-28T22:03:38.134Z,99010.09
2023-03-28T22:06:05.793Z,99015.28
2023-03-28T22:08:33.044Z,99010.09
2023-03-28T22:11:02.688Z,99015.28
2023-03-28T22:13:30.163Z,99008.38
2023-03-28T22:16:00.792Z,99016.97
2023-03-28T22:18:30.792Z,99025.63
2023-03-28T22:21:02.424Z,99022.16
2023-03-28T22:23:30.008Z,99022.16
2023-03-28T22:25:58.634Z,99016.97
2023-03-28T22:28:25.599Z,99032.50
2023-03-28T22:30:56.728Z,99022.16
2023-03-28T22:33:25.373Z,99023.88
2023-03-28T22:35:53.264Z,99031.66
2023-03-28T22:38:20.365Z,99032.50
2023-03-28T22:40:47.802Z,99024.75
2023-03-28T22:43:15.574Z,99029.06
2023-03-28T22:45:43.060Z,99034.22
2023-03-28T22:48:16.207Z,99039.38
2023-03-28T22:50:44.523Z,99029.88
2023-03-28T22:53:12.524Z,99031.66
2023-03-28T22:55:39.775Z,99038.53
2023-03-28T22:58:07.109Z,99035.94
2023-03-28T23:00:34.765Z,99036.81
2023-03-28T23:03:01.928Z,99041.97
2023-03-28T23:05:29.712Z,99035.06
2023-03-28T23:07:56.708Z,99035.06
2023-03-28T23:10:24.421Z,99045.41
2023-03-28T23:12:52.000Z,99033.34
2023-03-28T23:15:19.444Z,99038.50
2023-03-28T23:17:46.703Z,99041.13
2023-03-28T23:20:15.063Z,99046.28
2023-03-28T23:22:44.208Z,99047.97
2023-03-28T23:25:12.868Z,99042.81
2023-03-28T23:27:40.083Z,99050.56
2023-03-28T23:30:08.978Z,99047.09
2023-03-28T23:32:36.444Z,99053.16
2023-03-28T23:35:05.746Z,99048.84
2023-03-28T23:37:34.512Z,99060.03
2023-03-28T23:40:02.341Z,99060.91
2023-03-28T23:42:29.200Z,99045.34
2023-03-28T23:44:56.409Z,99057.41
2023-03-28T23:47:23.527Z,99059.09
2023-03-28T23:49:50.757Z,99052.16
2023-03-28T23:52:17.672Z,99057.38
2023-03-28T23:54:45.542Z,99053.91
2023-03-28T23:57:12.572Z,99059.06
2023-03-28T23:59:39.917Z,99057.31
